x

9440910 - Toke Point, Wa (tokw1) Weather Station

6:00 - Sat 24th Sep 2016 All times are PDT. -7 hours from GMT.

  • Wind
    8mph, 10mph gusts
  • Sea Temp 61°f
  • Luft Temp 62°f
  • Sea Pressure 1027mb
  • 9440910 - Toke Point, Wa
  • 9440910 - Toke Point, Wa

More Historic Weather Station data

Upgrade to MSW Pro to gain access to the past 30 days of data for over 8000 Wavebouys and Weather Stations around the globe.

Join Pro

Comparision Forecast

View Surf forecast
   
Sa 09/24 6:00 8 10 mph 1027mb 61f 62f
5:54 8 10 mph 1026.9mb 61f 62f
5:48 6 7 mph 1026.7mb 60f 62f
5:42 7 8 mph 1026.8mb 60f 63f
5:36 8 10 mph 1026.8mb 60f 63f
5:30 8 9 mph 1026.8mb 60f 64f
5:24 7 9 mph 1026.7mb 60f 64f
5:18 6 10 mph 1026.8mb 60f 63f
5:12 8 9 mph 1026.8mb 60f 63f
5:06 7 9 mph 1026.7mb 61f 63f
5:00 8 9 mph 1026.6mb 60f 63f
4:54 7 8 mph 1026.7mb 61f 63f
4:48 7 9 mph 1026.8mb 61f -
4:42 6 8 mph 1026.7mb 61f -
4:36 5 6 mph 1026.7mb 61f -
4:30 6
mph
1026.9mb 61f 64f
4:24 2 3 mph 1027.1mb 61f 65f
4:18 3
mph
1027.2mb 61f 66f
4:12  -  2 mph 1027.1mb 61f 69f
4:06  -  1 mph 1026.8mb 61f 68f
4:00  -  mph 1026.8mb 61f 67f
3:54  -  mph 1026.9mb 61f 66f
3:48 2 3 mph 1027mb 61f -
3:42  -  2 mph 1027mb 60f -
3:36  -  2 mph 1027mb 61f -
3:30 1 2 mph - 61f -
3:24 1
mph
- 60f -
3:18 1 2 mph 1027.1mb 60f 67f
3:12 2 3 mph 1027.1mb 61f 66f
3:06 2
mph
1027.2mb 61f 66f
3:00  -  2 mph 1027.2mb 60f 67f
2:54 2
mph
1027.1mb 60f 65f
2:48  -  1 mph 1027.4mb 60f 66f
2:42  -  2 mph 1027.7mb 60f 66f
2:36  -  1 mph 1027.9mb 60f 66f
2:30  -  2 mph 1027.9mb 60f 65f
2:24 1 3 mph 1027.9mb 60f 64f
2:18 2 3 mph 1027.9mb 60f 64f
2:12 3 5 mph 1027.9mb 61f 63f
2:06 3 5 mph 1027.8mb 60f 63f
2:00 3 5 mph 1027.9mb 60f 63f
1:54 3 6 mph 1028mb 61f 62f
1:48 3
mph
1028.2mb 60f 62f
1:42 2 3 mph 1028.2mb 60f 62f
1:36 3
mph
1028.4mb 60f 62f
1:30 2 3 mph 1028.5mb 60f 62f
1:24 3 5 mph 1028.7mb 60f 62f
1:18 2 3 mph 1028.7mb 60f 62f
1:12 2 3 mph 1028.7mb 60f 62f
1:06 1 2 mph 1028.7mb 60f 62f
1:00 2
mph
1028.6mb 60f 61f
12:54 2 3 mph 1028.7mb 60f 61f
12:48 3 6 mph 1028.5mb 60f 60f
12:42 6
mph
1028.3mb 60f 59f
12:36 6
mph
1028.5mb 60f 59f
12:30 5 6 mph 1028.5mb 60f 58f
12:24 6
mph
1028.7mb 60f 59f
12:18 5
mph
1028.9mb 60f 58f
12:12 3 5 mph 1028.9mb 60f 59f
12:06 3
mph
1029mb 60f 59f
12:00 3
mph
1029.1mb 60f 59f
11:54 2
mph
1029.3mb 60f 60f
11:48 2 3 mph 1029.3mb 60f 59f
11:42 2
mph
1029.2mb 60f 60f
11:36 1 2 mph 1029.3mb 60f 60f
11:30 2
mph
1029.2mb 60f 60f
11:24 1 2 mph 1029.3mb 60f 58f
11:18 2
mph
1029.2mb 60f 58f
11:12 2 3 mph 1029.2mb 60f 57f
11:06 2
mph
1029.1mb 60f 57f
11:00 2 3 mph 1028.8mb 60f 58f
10:54 2 3 mph 1028.8mb 60f 58f
10:48 2 3 mph 1028.7mb 60f 57f
10:42 2
mph
1028.8mb 60f 57f
10:36 2 3 mph 1028.7mb 60f 57f
10:30 3 5 mph 1028.8mb 60f 56f
10:24 2 5 mph 1028.7mb 60f 56f
10:18 3 6 mph 1028.6mb 60f 56f
10:12 3 6 mph 1028.6mb 60f 56f
10:06 5 7 mph 1028.5mb 60f 56f
10:00 6 7 mph 1028.5mb 60f 55f
9:54 5 7 mph 1028.6mb 60f 55f
9:48 5 7 mph 1028.5mb 60f 55f
9:42 5 7 mph 1028.6mb 60f 54f
9:36 6 7 mph 1028.7mb 59f 54f
9:30 6 7 mph 1028.8mb 59f 54f
9:24 6 7 mph 1028.7mb 60f 54f
9:18 5 7 mph 1028.7mb - 54f
9:12 6 7 mph 1028.5mb - 54f
9:06 7 8 mph 1028.2mb - 53f
9:00 8
mph
1028.2mb 60f 53f
8:54 8 9 mph 1028.2mb 60f 53f
8:48 7 8 mph 1028.1mb 60f 53f
8:42 7 8 mph 1028.2mb 60f 53f
8:36 7 9 mph 1028.1mb 60f 53f
8:30 8 9 mph 1027.9mb 60f 53f
8:24 9 10 mph 1027.9mb 60f 52f
8:18 10 11 mph 1027.8mb 60f 52f
8:12 9 13 mph 1027.9mb 60f 52f
8:06 11 13 mph 1027.8mb 60f 52f
8:00 9 10 mph 1027.8mb 60f 52f
7:54 8 9 mph 1027.7mb 60f 52f
7:48 9 10 mph 1027.6mb 60f 52f
7:42 9 10 mph 1027.4mb 60f 52f
7:36 9
mph
1027.4mb 60f 52f
7:30 7
mph
1027.6mb 60f 52f
7:24 6 7 mph 1027.6mb 60f 52f
7:18 5
mph
1027.5mb 60f 52f
7:12 3 5 mph 1027.4mb 60f 52f
7:06 2 3 mph 1027.3mb 60f 53f
7:00 1 2 mph 1027.3mb 60f 53f
6:54  -  1 mph 1027.1mb 60f 53f
6:48  -  1 mph 1027.1mb 60f 53f
6:42 2 3 mph 1027.1mb 60f 53f
6:36  -  1 mph 1026.8mb 60f 53f
6:30 1 7 mph 1026.8mb 60f 53f
6:24 6
mph
1026.7mb 60f 53f
6:18 2 5 mph 1026.6mb 60f 53f
6:12 6 8 mph 1026.6mb 60f 53f
6:06 5 6 mph 1026.6mb 60f 53f
6:00 6 10 mph 1026.5mb 60f 53f
5:54 7 9 mph 1026.6mb 60f 53f
5:48 3 5 mph 1026.5mb 60f 53f
5:42 3 5 mph 1026.8mb 60f 53f
5:36 3 5 mph 1026.7mb 60f 53f
5:30 5 6 mph 1026.6mb 60f 53f
5:24 6
mph
1026.4mb 60f 53f
5:18 3 5 mph 1026.4mb 60f 53f
5:12 2 6 mph 1026.4mb 60f 53f
5:06 5 6 mph 1026.2mb 60f 54f
5:00 2 3 mph 1026.2mb 60f 54f
4:54 2
mph
1026.2mb 60f 54f
4:48 1 5 mph 1026.2mb 60f 53f
4:42 5 6 mph 1026.2mb 60f 53f
4:36 5 6 mph 1026.3mb 60f 53f
4:30 1 3 mph 1026.3mb 60f 53f
4:24 2 3 mph 1026.4mb 60f 53f
4:18 1 3 mph 1026.2mb 60f 52f
4:12 1 2 mph 1026.2mb 60f 53f
4:06 2 3 mph 1026mb 60f 53f
4:00 3 5 mph 1025.9mb 59f 53f
3:54 1 5 mph 1025.8mb 59f 54f
3:48 5
mph
1025.7mb 60f 54f
3:42 2 3 mph 1025.7mb 59f 53f
3:36 3
mph
1025.6mb 60f 53f
3:30 2 3 mph 1025.6mb 59f 53f
3:24 1 2 mph 1025.5mb 59f 54f
3:18  -  6 mph 1025.6mb 59f 53f
3:12 3 5 mph 1025.7mb 60f 53f
3:06 5 6 mph 1025.5mb 60f 53f
3:00 2
mph
1025.7mb 60f 53f
2:54 1 3 mph 1025.7mb 60f 53f
2:48 2 3 mph 1025.6mb 60f 53f
2:42 3 5 mph 1025.7mb 60f 53f
2:36 3 5 mph 1025.8mb 60f 53f
2:30 3 5 mph 1025.8mb 59f 53f
2:24 3 5 mph 1025.9mb 60f 54f
2:18 3 5 mph 1025.8mb 60f 55f
2:12 2 3 mph 1025.9mb 60f 54f
2:06 3
mph
1025.8mb 60f 53f
2:00 2
mph
1025.8mb 60f 52f
1:54 1 2 mph 1025.7mb 60f 53f
1:48 2 3 mph 1025.5mb 59f 53f
1:42 2 3 mph 1025.6mb 59f 53f
1:36 2 3 mph 1025.6mb 60f 53f
1:30 3
mph
1025.6mb 59f 53f
1:24 2 3 mph 1025.5mb 59f 53f
1:18 3 5 mph 1025.5mb 59f 53f
1:12 3 6 mph 1025.5mb 59f 53f
1:06 2 3 mph 1025.4mb 59f 54f
1:00 2 3 mph 1025.3mb 59f 54f
12:54 2
mph
1025.1mb 59f 55f
12:48 1 2 mph 1025mb 60f 55f
12:42 2
mph
1024.9mb 59f 56f
12:36 1 2 mph 1024.8mb 59f 56f
12:30 2 3 mph 1024.8mb 59f 56f
12:24 2 3 mph 1024.7mb 59f 56f
12:18  -  1 mph 1024.6mb 59f 56f
12:12  -  1 mph 1024.6mb 60f 56f
12:06  -  1 mph 1024.5mb 60f 56f
12:00  -  1 mph 1024.6mb 59f 56f
Fr 09/23 11:54  -  1 mph 1024.6mb 59f 56f
11:48  -  1 mph 1024.5mb 59f 56f
11:42  -  1 mph 1024.5mb 59f 56f
11:36 1 2 mph 1024.4mb 59f 56f
11:30 2
mph
1024.4mb 59f 56f
11:24 1 3 mph 1024.4mb 59f 56f
11:18 2 3 mph 1024.4mb 60f 56f
11:12 3 5 mph 1024.3mb 60f 56f
11:06 3 6 mph 1024.2mb 60f 56f
11:00 5 6 mph 1024.2mb 60f 56f
10:54 6 8 mph 1024.2mb 60f 56f
10:48 6 8 mph 1024.2mb 59f 56f
10:42 7 8 mph 1024.3mb 60f 56f
10:36 8 9 mph 1024.3mb 60f 56f
10:30 7 8 mph 1024.2mb 60f 57f
10:24 7 10 mph 1024mb 60f 57f
10:18 9 10 mph 1023.9mb 60f 57f
10:12 9 11 mph 1023.9mb 60f 57f
10:06 9 10 mph 1023.9mb 60f 57f
10:00 8 9 mph 1023.8mb 60f 57f
9:54 8 10 mph 1023.7mb 60f 57f
9:48 8 10 mph 1023.7mb 60f 58f
9:42 8 9 mph 1023.7mb 60f 58f
9:36 9 11 mph 1023.5mb 59f 58f
9:30 9 13 mph 1023.5mb 60f 58f
9:24 9 13 mph 1023.4mb 60f 58f
9:18 11 14 mph 1023.3mb 59f 59f
9:12 9 13 mph 1023.3mb 60f 59f
9:06 9 14 mph 1023.2mb 60f 59f
9:00 10 14 mph 1023mb 59f 59f
8:54 10 14 mph 1022.9mb 59f 58f
8:48 10 13 mph 1022.8mb 60f 59f
8:42 9 14 mph 1022.8mb 59f 58f
8:36 9 13 mph 1022.7mb 59f 58f
8:30 7 10 mph 1022.4mb 60f 58f
8:24 8 10 mph 1022.2mb 59f 58f
8:18 8 10 mph 1022.1mb 59f 58f
8:12 7 11 mph 1022.1mb 59f 58f
8:06 7 10 mph 1022mb 59f 58f
8:00 7 9 mph 1021.7mb 59f 58f
7:54 7 9 mph 1021.6mb 59f 58f
7:48 7 9 mph 1021.5mb 59f 58f
7:42 6 9 mph 1021.3mb 59f 58f
7:36 6 8 mph 1021.2mb 59f 58f
7:30 6 9 mph 1021.3mb 59f 58f
7:24 6 8 mph 1021.1mb 59f 58f
7:18 6 10 mph 1020.8mb 59f 58f
7:12 8 9 mph 1021.1mb 59f 58f
7:06 6 9 mph 1021.1mb 59f 59f
7:00 7 10 mph 1021mb 59f 59f
6:54 7 10 mph 1020.8mb 59f 59f
6:48 8 13 mph 1020.6mb 59f 59f
6:42 11 14 mph 1020.6mb 59f 59f
6:36 14 18 mph 1020.5mb 59f 59f
6:30 13 18 mph 1020.5mb 59f 59f
6:24 14 17 mph 1020.3mb 59f 60f
6:18 15 17 mph 1020.2mb 59f 60f
6:12 14 21 mph 1020mb 59f 60f
6:06 15 20 mph 1020mb 59f 60f
6:00 10 15 mph 1020.1mb 59f 60f
5:54 10 15 mph 1020mb 59f 60f
5:48  -  mph 1020mb 59f -
5:42  -  mph 1019.8mb 59f -
5:36  -  mph 1019.7mb 60f -
5:30 9 13 mph 1019.7mb 60f 61f
5:24 9 15 mph 1019.7mb 60f 61f
5:18 13 16 mph 1019.6mb 60f 61f
5:12 11 15 mph 1019.6mb 60f 61f
5:06 10 14 mph 1019.5mb 60f 61f
5:00 13 15 mph 1019.4mb 60f 61f
4:54 13 16 mph 1019.3mb 60f 62f
4:48 14 16 mph 1019.3mb 60f -
4:42 13 18 mph 1019.1mb 60f -
4:36 13 17 mph 1019.1mb 60f -
4:30 11 16 mph - 60f -
4:24 10 17 mph - 60f -
4:18 15 20 mph 1019.2mb 60f 62f
4:12 14 18 mph 1019mb 60f 62f
4:06 13 18 mph 1018.8mb 60f 62f
4:00 10 17 mph 1018.7mb 60f 62f
3:54 9 15 mph 1018.7mb 60f 62f
3:48 10 14 mph 1018.8mb 60f -
3:42 10 14 mph 1018.7mb 60f -
3:36 11 15 mph 1018.5mb 60f -
3:30 9 14 mph 1018.5mb 60f 62f
3:24 10 14 mph 1018.4mb 60f 62f
3:18 11 14 mph 1018.3mb 60f 62f
3:12 10 14 mph 1018.2mb 60f 62f
3:06 10 15 mph 1018.1mb 60f 62f
3:00 10 15 mph 1018.1mb 60f -
2:54 10 15 mph 1018mb 60f -
2:48 8 13 mph 1017.9mb 60f 62f
2:42 9 14 mph 1017.9mb 60f 61f
2:36 10 14 mph 1017.9mb 60f 61f
2:30 10 14 mph 1017.8mb 60f 61f
2:24 10 14 mph 1017.7mb 60f 61f
2:18 10 14 mph 1017.7mb 60f 61f
2:12 8 13 mph 1017.5mb 60f 61f
2:06 9 13 mph 1017.3mb 60f 61f
2:00 10 13 mph 1017.1mb 60f 61f
1:54 8 13 mph 1017.1mb 60f 61f
1:48 9 13 mph 1017.1mb 60f 60f
1:42 9 13 mph 1017.1mb 60f 60f
1:36 8 11 mph 1016.9mb 60f 59f
1:30 8 11 mph 1016.8mb 60f 59f
1:24 9 13 mph 1016.7mb 60f 59f
1:18 13 16 mph 1016.6mb 60f 59f
1:12 10 14 mph 1016.6mb 60f 59f
1:06 9 13 mph 1016.4mb 60f 59f
1:00 10 14 mph 1016.3mb 60f 59f
12:54 11 14 mph 1016.3mb 60f 59f
12:48 11 20 mph 1016.3mb 60f 58f
12:42 14 21 mph 1016.3mb 60f 58f
12:36 20 30 mph 1016.1mb 60f 58f
12:30 20 28 mph 1016.2mb 60f 58f
12:24 21 26 mph 1016.3mb 60f 57f
12:18 23 30 mph 1016.2mb 60f 57f
12:12 24 31 mph 1016.1mb 60f 57f
12:06 23 29 mph 1016.1mb 60f 57f
12:00 23 36 mph 1016mb 60f 57f
11:54 21 31 mph 1015.7mb 60f 57f
11:48 24 33 mph 1015.7mb 60f 57f
11:42 25 33 mph 1015.5mb 60f 57f
11:36 28 34 mph 1015.4mb 60f 57f
11:30 22 36 mph 1015.4mb 60f 57f
11:24 29 37 mph 1015.2mb 60f 57f
11:18 25 34 mph 1015.3mb 60f 57f
11:12 24 38 mph 1015.1mb 60f 57f
11:06 31 38 mph 1015mb 60f 57f
11:00 28 37 mph 1014.8mb 60f 57f
10:54 28 38 mph 1014.7mb 60f 57f
10:48 32 40 mph 1014.6mb 60f 57f
10:42 30 37 mph 1014.5mb 60f 57f
10:36 24 33 mph 1014.6mb 60f 56f
10:30 25 29 mph 1014.3mb 60f 56f
10:24 24 31 mph 1014.5mb 60f 56f
10:18 28 31 mph 1014.3mb 60f 56f
10:12 24 32 mph 1014.3mb 60f 56f
10:06 23 26 mph 1014.3mb 60f 55f
10:00 21 25 mph 1014.4mb 60f 55f
9:54 18 22 mph 1014.3mb 60f 55f
9:48 15 18 mph 1014.5mb 60f 55f
9:42 15 17 mph 1014.4mb 60f 55f
9:36 16 22 mph 1014.2mb 60f 55f
9:30 16 22 mph 1014mb 60f 54f
9:24 15 20 mph 1014.2mb 60f 54f
9:18 17 22 mph 1014.1mb 60f 54f
9:12 17 21 mph 1014.2mb 60f 54f
9:06 15 18 mph 1014.3mb 60f 54f
9:00 17 22 mph 1014.3mb 60f 54f
8:54 18 22 mph 1014.3mb 60f 54f
8:48 16 23 mph 1014.3mb 60f 54f
8:42 18 24 mph 1014.3mb 60f 54f
8:36 16 20 mph 1014.3mb 60f 54f
8:30 16 22 mph 1014.3mb 60f 55f
8:24 15 21 mph 1014.4mb 60f 54f
8:18 17 21 mph 1014.4mb 60f 54f
8:12 17 23 mph 1014.6mb 60f 54f
8:06 17 21 mph 1014.6mb 60f 54f
8:00 17 21 mph 1014.7mb 60f 54f
7:54 16 20 mph 1014.8mb 60f 54f
7:48 16 21 mph 1014.8mb 60f 55f
7:42 16 21 mph 1014.8mb 60f 55f
7:36 17 24 mph 1014.9mb 60f 55f
7:30 16 20 mph 1014.9mb 60f 55f
7:18 17 21 mph 1015.1mb 60f 56f
7:12 18 22 mph 1015mb 60f 56f
7:00 17 20 mph 1015.1mb 60f 56f
6:54 17 21 mph 1015.1mb 60f 56f
6:48 15 20 mph 1015.2mb 60f 57f
6:42 15 21 mph 1015.2mb 60f 57f
6:30 14 17 mph 1015.3mb 60f 57f
6:12 15 17 mph 1015.6mb 60f 57f
6:06 15 17 mph 1015.6mb 60f 57f
5:54 14 21 mph 1015.7mb 61f 58f
5:48 16 22 mph 1015.6mb 60f 58f
5:42 18 21 mph 1015.6mb 60f 58f
5:30 16 20 mph 1015.7mb 60f 58f
5:24 16 20 mph 1015.5mb 60f 58f
5:18 15 18 mph 1015.7mb 61f 58f
5:12 15 18 mph 1015.7mb 61f 58f
5:06 16 17 mph 1015.8mb 61f 58f
5:00 14 16 mph 1015.9mb 61f 58f
4:54 13 15 mph 1016mb 61f 58f
4:48 13 14 mph 1016.2mb 61f 58f
4:42 13 16 mph 1016.3mb 61f 58f
4:36 13 17 mph 1016.3mb 61f 58f
4:30 14 15 mph 1016.4mb 61f 58f
4:24 14 16 mph 1016.5mb 61f 58f
4:18 14 16 mph 1016.4mb 61f 58f
4:12 15 20 mph 1016.5mb 61f 58f
4:06 13 17 mph 1016.7mb 61f 58f
4:00 14 15 mph 1016.6mb 61f 58f
3:54 13 16 mph 1016.8mb 61f 58f
3:48 11 16 mph 1016.9mb 61f 58f
3:42 11 15 mph 1017.1mb 61f 58f
3:36 14 16 mph 1017.2mb 61f 58f
3:30 13 14 mph 1017.2mb 61f 58f
3:24 11 15 mph 1017.2mb 61f 58f
3:18 13 14 mph 1017.4mb 61f -
3:12 10 15 mph 1017.4mb 61f 58f
3:06 11 14 mph 1017.5mb 61f 57f
3:00 11 13 mph 1017.5mb 61f 57f
2:54 10 13 mph 1017.5mb 61f 57f
2:48 9 13 mph 1017.4mb - -
2:42 9 13 mph 1017.4mb 60f 57f
2:36 10 13 mph 1017.5mb 60f 57f
2:30 9 11 mph 1017.5mb 60f 57f
2:24 10 13 mph 1017.5mb 60f 57f
2:18 9 13 mph 1017.5mb 60f 57f
2:06 10 14 mph 1017.6mb 60f 57f
2:00 10 13 mph 1017.6mb 60f 57f
1:42 9 10 mph 1017.8mb 61f 57f
1:36 8 10 mph 1017.9mb 61f 57f
1:24 9 11 mph 1017.9mb 60f 57f
1:18 9 13 mph 1018mb 60f 57f
1:06 11 14 mph 1017.8mb 61f 57f
1:00 10 14 mph 1018mb 60f 57f
12:42 10 11 mph 1017.9mb 60f 57f
12:36 10 13 mph 1017.8mb 60f 57f
12:24 10 13 mph 1017.8mb 60f 57f
12:18 10 11 mph 1017.9mb 60f 57f
12:06 10 13 mph 1017.9mb 60f 58f
12:00 10 14 mph 1017.9mb 60f 57f
Do 09/22 11:42 10 13 mph 1018mb 61f 57f
11:36 9 13 mph 1017.9mb 60f -
11:24 10 13 mph - - -
11:18 11 13 mph 1017.9mb 60f 57f
11:12 10 13 mph 1017.8mb 60f 57f
11:06 11 13 mph 1017.8mb 60f 57f
11:00 10 13 mph 1018.1mb 60f 57f
10:54 10 14 mph 1018.1mb 60f 57f
10:48 11 13 mph 1018.1mb 60f 57f
10:42 10 13 mph 1018.2mb 60f 57f
10:36 10 11 mph 1018.3mb 60f 58f
10:30 10 11 mph 1018.2mb 60f 58f
10:24 10 13 mph 1018.2mb 60f 57f
10:18 10 11 mph 1018.3mb - -
10:12 9 10 mph 1018.4mb 60f 58f
10:06 10 11 mph 1018.5mb 60f 58f
10:00 9 13 mph 1018.4mb 60f 59f
9:54 9 13 mph 1018.5mb 60f 59f
9:48 9 11 mph 1018.6mb 60f -
9:42 9 13 mph 1018.8mb 60f 59f
9:36 9 11 mph 1018.9mb 60f 59f
9:30 9 14 mph 1019mb 60f 59f
9:24 10 13 mph 1019mb 60f 58f
9:18 9 13 mph 1018.9mb 60f 59f
9:12 8 11 mph 1018.9mb 60f 59f
9:06 8 11 mph 1018.9mb 60f 59f
9:00 9 13 mph 1019.1mb 60f 59f
8:54 9 13 mph 1019.2mb 60f 59f
8:48 8 13 mph 1019.2mb 60f 59f
8:42 8 11 mph 1019mb 60f 59f
8:36 8 11 mph 1019mb 60f 59f
8:30 10 13 mph 1019mb 60f 59f
8:24 10 13 mph 1019mb 60f 59f
8:18 10 14 mph - - -
8:12 8 11 mph 1018.9mb 60f 59f
8:00 8 11 mph 1019mb 60f 59f
7:42 7 9 mph 1018.9mb 60f 59f
7:36 7 9 mph 1018.9mb 60f 59f
7:24 6 8 mph 1019.1mb 60f -
7:18 6 9 mph 1019.2mb 60f -
7:06  -  mph 1019.2mb 60f 59f
7:00  -  mph 1019.2mb 60f 59f
6:42 6 7 mph 1019.4mb - -
6:36 6 8 mph 1019.5mb 60f -
6:24 5 6 mph 1019.6mb 60f -
6:18 5 6 mph 1019.6mb 60f -
6:00 3 5 mph - 60f 60f
5:54 3 5 mph 1019.4mb 60f 60f
5:42 6 7 mph 1019.5mb 60f 60f
5:36 6 8 mph 1019.5mb 60f 60f
5:24 3 6 mph 1019.4mb 60f 60f
5:18 5 6 mph 1019.4mb 60f 60f
5:06 5 7 mph 1019.5mb 60f 59f
5:00 5 8 mph 1019.4mb 60f 60f
4:54 7 9 mph 1019.4mb 60f 60f
4:48 7 8 mph 1019.4mb 60f 60f
4:42 6 7 mph 1019.4mb 60f -
4:36 5 7 mph 1019.3mb 60f -
4:30 6 7 mph - 60f 59f
4:24 6 7 mph - 60f 60f
4:18 5 7 mph 1019.4mb 60f -
4:12 3 7 mph 1019.4mb 61f -
4:06 6 8 mph 1019.5mb 61f -
4:00 7 8 mph - 61f 59f
3:54 7 9 mph - 61f 59f
3:48 6 8 mph 1019.7mb - -
3:42 6 8 mph 1019.6mb 61f -
3:36 6 8 mph 1019.7mb 61f -
3:30 7 9 mph 1019.6mb 61f 59f
3:24 6 8 mph 1019.7mb 61f 59f
3:18 6 8 mph 1019.6mb 61f -
3:12 7 10 mph 1019.6mb 61f 59f
3:06 9 11 mph 1019.5mb 61f 59f
3:00 7 10 mph 1019.4mb 61f 60f
2:54 7 10 mph 1019.4mb 61f 60f
2:48 9 11 mph 1019.5mb 61f -
2:42 8 9 mph 1019.4mb 61f 60f
2:36 8 9 mph 1019.3mb 61f 60f
2:30 7 9 mph 1019.2mb 61f 60f
2:24 6 10 mph 1019.2mb 61f 60f
2:18 8 10 mph 1019.1mb 61f 60f
2:12 8 11 mph 1019.1mb 61f 60f
2:06 9 13 mph 1019.1mb 61f 60f
2:00 10 13 mph 1019mb 61f 59f
1:54 8 13 mph 1019mb 61f 60f
1:48 9 11 mph 1019mb 61f 59f
1:42 10 13 mph 1019.1mb 61f 59f
1:36 9 11 mph 1019.1mb 61f 59f
1:30 8 10 mph 1019mb 61f 59f
1:24 7 11 mph 1019mb 61f 60f
1:18 9 11 mph 1019mb - 60f
1:12 9 11 mph 1018.9mb - 59f
1:06 6 9 mph 1018.9mb - 59f
1:00 6 9 mph 1019mb 61f 59f
12:54 8 14 mph 1019mb 61f 59f
12:48 8 11 mph 1019mb 61f -
12:42 5 7 mph 1019.1mb 61f 59f
12:36 5 10 mph 1019.2mb 61f 59f
12:30 7 11 mph 1019.2mb 61f 58f
12:24 7 10 mph 1019.2mb 61f 58f
12:18 8 10 mph 1019.2mb 61f 58f
12:12 7 8 mph 1019.1mb 61f 58f
12:06 7 10 mph 1019mb 61f 58f
12:00 6 7 mph 1018.9mb 61f 58f
11:54 6 9 mph 1018.9mb 61f 58f
11:48 7 9 mph 1018.8mb 61f 58f
11:42 6 8 mph 1018.7mb 61f 58f
11:36 6 7 mph 1018.7mb 61f 58f
11:30 6 7 mph 1018.7mb 61f 58f
11:24 6
mph
1018.6mb 61f 57f
11:18 3 5 mph 1018.6mb 61f 58f
11:12 3 5 mph 1018.5mb 61f 57f
11:06 3 5 mph 1018.5mb 61f 57f
11:00 3 5 mph 1018.4mb 61f 57f
10:54 3 6 mph 1018.3mb 61f 57f
10:48  -  2 mph 1018.3mb 61f 58f
10:42 2 6 mph 1018.3mb 61f 57f
10:36 3 5 mph 1018.3mb 61f 56f
10:30 3 6 mph 1018.3mb 61f 56f
10:24 6 9 mph 1018.3mb 61f 56f
10:18 7 8 mph 1018.3mb 61f 56f
10:12 8 10 mph 1018.2mb 61f 56f
10:06 9 11 mph 1018.2mb 61f 56f
10:00 7 9 mph 1018.2mb 61f 56f
9:54 7 8 mph 1018.1mb 61f 56f
9:48 3 5 mph 1018mb 61f 56f
9:42 2 3 mph 1017.9mb 61f 56f
9:36 2 5 mph 1017.8mb 61f 56f
9:30 3 5 mph 1017.8mb 61f 56f
9:24 5 6 mph 1017.9mb 61f 55f
9:18 3 6 mph 1017.7mb 61f 55f
9:12 5 6 mph 1017.7mb 61f 55f
9:06 5 7 mph 1017.7mb 61f 56f
9:00 6 8 mph 1017.7mb 61f 56f
8:54 7 10 mph 1017.6mb 61f 56f
8:48 8 9 mph 1017.5mb 61f 56f
8:42 6 7 mph 1017.4mb 61f 56f
8:36 5 6 mph 1017.4mb 61f 56f
8:30 6 7 mph 1017.3mb 61f 56f
8:24 6 7 mph 1017.3mb 61f 55f
8:18 7 9 mph 1017.3mb 61f 56f
8:12 6 7 mph 1017.3mb 61f 56f
8:06 5 7 mph 1017.3mb 61f 56f
8:00 5 6 mph 1017.2mb 61f 56f
7:54 3
mph
1017.2mb 61f 55f
7:48 3
mph
1017.1mb 61f -
7:42 3 5 mph 1017mb 61f 55f
7:36 3 6 mph 1017mb 61f 55f
7:30 2 5 mph 1016.9mb 61f 56f
7:24 2
mph
1016.9mb 61f 56f
7:18  -  2 mph 1016.8mb - -
7:12 1 5 mph 1016.7mb 60f 55f
7:06 5 6 mph 1016.5mb 60f 55f
7:00 1 2 mph 1016.4mb 60f 55f
6:54 1 2 mph 1016.4mb 60f 55f
6:48 2 5 mph 1016.4mb 60f 55f
6:42 3 5 mph 1016.3mb 61f 55f
6:36 3
mph
1016.2mb 61f 55f
6:30 3
mph
1016.1mb 61f 55f
6:24 3 6 mph 1016.1mb 61f 54f
6:18 6
mph
1016.1mb 61f 54f
6:12 5 6 mph 1016.1mb 61f 54f
6:06 5 6 mph 1016mb 61f 54f
6:00 5 7 mph 1016mb 61f 54f
5:54 6 7 mph 1015.9mb 61f 53f
5:48 6 7 mph 1015.9mb 61f 54f
5:42 6 7 mph 1015.8mb 61f 54f
5:36 6 7 mph 1015.8mb 61f 53f
5:30 6 7 mph 1015.8mb 61f 54f
5:24 6 7 mph 1015.8mb 61f 54f
5:18 5 6 mph 1015.8mb 61f 54f
5:12 5 6 mph 1015.8mb 61f 54f
5:06 5
mph
1015.8mb 61f 54f
5:00 2 3 mph 1015.8mb 61f 54f
4:54 1 2 mph 1015.8mb 61f 53f
4:48 1 3 mph 1015.9mb 61f 53f
4:42 3 5 mph 1015.8mb 61f 53f
4:36 3 5 mph 1015.8mb 61f 53f
4:30 1 3 mph 1015.8mb 61f 54f
4:24 2 3 mph 1015.7mb 61f 53f
4:18 2 5 mph 1015.7mb 61f 53f
4:12 5 6 mph 1015.6mb 61f 53f
4:06 3 5 mph 1015.5mb 61f 53f
4:00 3 6 mph 1015.4mb 61f 53f
3:54 5 6 mph 1015.4mb 61f 53f
3:48 5 8 mph 1015.3mb 61f 53f
3:42 7 9 mph 1015.4mb 61f 53f
3:36 2 5 mph 1015.4mb 61f 53f
3:30 2 3 mph 1015.3mb 61f 53f
3:24 2 3 mph 1015.3mb 61f 54f
3:18 5 9 mph 1015.3mb 62f 54f
3:12 9 10 mph 1015.2mb 62f 52f
3:06 9 10 mph 1015mb 62f 52f
3:00 5 6 mph 1014.9mb 61f 53f
2:54 2 3 mph 1014.8mb 61f 53f
2:48  -  2 mph 1014.8mb 61f 52f
2:42  -  2 mph 1014.8mb 61f 51f
2:36 2 3 mph 1014.8mb 61f 51f
2:30 3 5 mph 1014.8mb 61f 52f
2:24 2 5 mph 1014.8mb 61f 53f
2:18 5 6 mph 1014.7mb 61f -
2:12 6 8 mph 1014.8mb 61f 52f
2:06 7 9 mph 1014.8mb 61f 52f
2:00 8 9 mph 1014.8mb 61f 52f
1:54 7 8 mph 1014.8mb 61f 52f
1:48 7 10 mph 1014.8mb 61f 53f
1:42 9 11 mph 1014.9mb 61f 52f
1:36 11 13 mph 1014.9mb 61f 52f
1:30 9 11 mph 1014.8mb 61f 53f
1:24 8 9 mph 1014.8mb 61f 53f
1:18 7 8 mph 1014.8mb 61f 53f
1:12 6
mph
1014.7mb 62f 53f
1:06 6 7 mph 1014.7mb 62f 53f
1:00 6 7 mph 1014.8mb 62f 53f
12:54 7
mph
1014.8mb 62f 53f
12:48 5 6 mph 1014.8mb 62f 53f
12:42 3
mph
1014.8mb 62f 53f
12:36 2 5 mph 1014.8mb 62f 53f
12:30 3
mph
1014.8mb - -
12:24 3 5 mph 1014.8mb 62f 53f
12:18 3 5 mph 1014.8mb 62f 53f
12:12 3 5 mph 1014.8mb 62f 53f
12:06 2 3 mph 1014.8mb 61f 54f
12:00 3
mph
1014.8mb 61f 53f
Mi 09/21 11:54 3 5 mph 1014.9mb 61f 53f
11:48 2 3 mph 1014.9mb - -
11:42 2 3 mph 1014.9mb 61f 53f
11:36  -  2 mph 1014.9mb 62f 53f
11:30 1 2 mph 1014.9mb 62f 53f
11:24  -  2 mph 1014.9mb 62f 54f
11:18  -  2 mph 1014.9mb 62f 54f
11:12 1 3 mph 1014.9mb 62f 55f
11:06 2 5 mph 1014.9mb 62f 56f
11:00 6 8 mph 1014.9mb 62f 56f
10:54 6 7 mph 1014.9mb 62f 56f
10:48 5 6 mph 1014.9mb 62f -
10:42 5 6 mph 1014.9mb 62f -
10:36 3 5 mph 1015mb 62f -
10:30 3 6 mph 1015.1mb 62f 56f
10:24 5 6 mph 1015.2mb 62f 56f
10:18 5 6 mph 1015.1mb 62f 56f
10:12 2 3 mph 1015.1mb 62f 55f
10:06 2
mph
1015.1mb 62f 56f
10:00 2 3 mph 1015.1mb 62f 56f
9:54 2 3 mph 1015mb 62f 56f
9:48 1 2 mph 1014.9mb 62f 56f
9:42  -  1 mph 1014.9mb 62f 56f
9:36 1 2 mph 1014.9mb 62f 56f
9:30  -  3 mph 1014.9mb 62f 56f
9:24 3
mph
1015mb 62f 56f
9:18 1
mph
1015mb 62f 56f
9:12 1 2 mph 1015mb 62f 56f
9:06 1 2 mph 1015mb 62f 56f
9:00  -  2 mph 1015mb 62f 57f
8:54 2 3 mph 1015mb 62f 57f
8:48  -  2 mph - - -
8:42 2 3 mph 1015mb 62f 57f
8:36 3
mph
1015mb 62f 57f
8:30 2 3 mph 1015mb 62f 57f
8:24 2 3 mph 1015mb 62f 57f
8:18 2
mph
1015mb 62f 57f
8:12  -  1 mph 1014.9mb 62f 57f
8:06 1 2 mph 1014.9mb 62f 57f
8:00 3 5 mph 1014.9mb 62f 58f
7:54 3
mph
1014.9mb 62f 57f
7:48 2 3 mph 1014.9mb 62f -
7:42 2 5 mph 1014.8mb 62f 58f
7:36 5 6 mph 1014.9mb 62f 58f
7:30 6 7 mph 1014.9mb 62f -
7:24 6 8 mph 1014.9mb 62f -
7:18 8 10 mph 1015mb 62f 59f
7:12 7 9 mph 1014.9mb 62f 58f
7:06 6 7 mph 1014.8mb 61f 59f
7:00 5 6 mph 1014.9mb 61f 60f
6:54 6 8 mph 1014.9mb 61f 60f
6:48 8 10 mph - 61f 60f
6:42 9 11 mph - 61f 60f
6:36 9 10 mph - 61f 61f
6:30 8 11 mph 1014.9mb 61f -
6:24 10 11 mph 1015mb 61f -
6:18 10 11 mph 1015mb 61f 61f
6:12 10 13 mph 1015.1mb 61f 62f
6:06 10 14 mph 1015.1mb 61f 62f
6:00 11 14 mph 1015.1mb 61f 62f
5:54 9 13 mph 1015.2mb 61f 62f
5:48 9 11 mph - - -
5:42 8 10 mph 1015.2mb 61f 63f
5:36 9 13 mph 1015.3mb 61f 63f
5:30 10 13 mph 1015.3mb 60f 62f
5:24 10 11 mph 1015.3mb 60f 62f
5:18  -  mph 1015.3mb 60f 63f
5:12  -  mph 1015.3mb 60f 63f
5:06  -  mph 1015.4mb 61f 62f
5:00 10 13 mph 1015.4mb 61f 63f
4:54 11 14 mph 1015.5mb 61f 62f
4:48 9 11 mph 1015.5mb 61f -
4:42 10 13 mph 1015.5mb 61f -
4:36 9 11 mph 1015.5mb 61f -
4:30 9 11 mph 1015.5mb 61f 64f
4:24 9 11 mph 1015.5mb 61f 64f
4:18 10 13 mph - 61f 64f
4:12 10 13 mph - 61f 64f
4:06 13 14 mph - 61f 63f
4:00  -  mph 1015.7mb 61f 64f
3:54  -  mph 1015.7mb 61f 64f
3:48 13 16 mph - 61f 64f
3:42 13 15 mph - 61f 64f
3:36 11 16 mph - 61f 64f
3:30 10 14 mph 1015.8mb 61f 65f
3:24 10 13 mph 1015.8mb 61f 65f
3:18 10 13 mph 1015.9mb 61f 65f
3:12 13 17 mph 1015.9mb 61f 65f
3:06 10 14 mph 1015.9mb 61f 65f
3:00 13 17 mph 1016mb 61f 65f
2:54 9 11 mph 1016mb 61f 65f
2:48  -  mph 1016mb 61f 66f
2:42  -  mph 1016.1mb 61f 65f
2:36  -  mph 1016.1mb 61f 65f
2:30 6 9 mph 1016.2mb 61f 65f
2:24 6 9 mph 1016.2mb 61f 65f
2:18 3 8 mph 1016.3mb 61f 66f
2:12  -  5 mph 1016.4mb 61f 67f
2:06 1 2 mph 1016.5mb 61f 66f
2:00 1 3 mph 1016.6mb 62f 67f
1:54 1 3 mph 1016.6mb 62f 66f
1:48 2
mph
1016.7mb 61f 66f
1:42 2 8 mph 1016.7mb 62f 65f
1:36 6 13 mph 1016.8mb 62f 64f
1:30 8 13 mph 1016.9mb 62f 64f
1:24 6 9 mph 1017mb 62f 64f
1:18 8 10 mph 1017mb 62f 63f
1:12 7 13 mph 1017mb 62f 63f
1:06 9 11 mph 1017.1mb 61f 60f
1:00 10 14 mph 1017.2mb 61f 60f
12:54 10 14 mph 1017.3mb 61f 60f
12:48 9 11 mph 1017.3mb 61f 61f
12:42 9 11 mph 1017.3mb 61f 61f
12:36 7 9 mph 1017.4mb 61f 62f
12:30 3
mph
1017.4mb 61f 62f
12:24 3 5 mph 1017.4mb 61f 62f
12:18 5
mph
1017.5mb 61f 61f
12:12 5 6 mph 1017.5mb 61f 61f
12:06 6 8 mph 1017.5mb 61f 60f
12:00 6 8 mph 1017.6mb 61f 60f
11:54 6 7 mph 1017.7mb 61f 60f
11:48 6 7 mph 1017.7mb 61f 60f
11:42 6 7 mph 1017.7mb 61f 60f
11:36 6 8 mph 1017.8mb 61f 59f
11:30 6 8 mph 1017.8mb 61f 59f
11:24 7 8 mph 1017.9mb 61f 59f
11:18 8 10 mph 1017.9mb 61f 59f
11:12 7 10 mph 1018mb 61f 58f
11:06 8 11 mph 1018mb 61f 58f
11:00 8 13 mph 1018.1mb 61f 58f
10:54 9 13 mph 1018.1mb 61f 58f
10:48 10 13 mph 1018.1mb 61f 58f
10:42 11 13 mph 1018.1mb 61f 58f
10:36 10 13 mph 1018.2mb 61f 57f
10:30 11 14 mph 1018.3mb 61f 57f
10:24 10 13 mph 1018.3mb 61f 57f
10:18 10 11 mph 1018.3mb 61f -
10:12 10 13 mph 1018.3mb 61f -
10:06 9 11 mph 1018.2mb 61f -
10:00 9 11 mph 1018.2mb 61f 55f
9:54 9 11 mph 1018.3mb 61f 54f
9:48 9 10 mph 1018.4mb 61f 54f
9:42 9 10 mph 1018.4mb 61f 54f
9:36 9 11 mph 1018.4mb 61f 54f
9:30 8 11 mph 1018.5mb 61f 54f
9:24 7 9 mph 1018.5mb 61f 54f
9:18 8 9 mph 1018.5mb 61f 53f
9:12 8 9 mph 1018.6mb 61f 53f
9:06 7 9 mph 1018.6mb 61f 52f
9:00 7 9 mph 1018.7mb 61f 52f
8:54 6 7 mph 1018.8mb 61f 51f
8:48 6 7 mph 1018.7mb 61f 51f
8:42 3 5 mph 1018.8mb 61f 51f
8:36 3 6 mph 1018.8mb 61f 51f
8:30 3 6 mph 1018.8mb 61f 51f
8:24 3 6 mph 1018.8mb 61f 51f
8:18 5 6 mph 1018.8mb 61f 51f
8:12 5 6 mph 1018.8mb 61f 51f
8:06 3 5 mph 1018.8mb 61f 51f
8:00 5 6 mph 1018.8mb 61f 51f
7:54 3 6 mph 1018.8mb 61f 51f
7:48 5 6 mph - - -
7:42 5 7 mph 1018.8mb 61f 50f
7:36 3 5 mph 1018.8mb 61f 51f
7:30 2 3 mph 1018.7mb 61f 51f
7:24 1 3 mph 1018.7mb 61f 50f
7:18 3 6 mph - - -
7:12 5 6 mph 1018.7mb 61f 50f
7:06 3 5 mph 1018.7mb 61f 51f
7:00 5 6 mph 1018.7mb 61f 50f
6:54 5 7 mph 1018.7mb 61f 50f
6:48 5 6 mph 1018.7mb 61f -
6:42 5 6 mph 1018.6mb 61f 50f
6:36 2 5 mph 1018.6mb 61f 50f
6:30  -  2 mph 1018.6mb 61f 50f
6:24 1 3 mph 1018.7mb 61f 50f
6:18 2 5 mph 1018.7mb 61f 50f
6:12 2 5 mph 1018.7mb 61f 50f
6:06  -  1 mph 1018.7mb 61f 50f
6:00  -  1 mph 1018.7mb 61f 50f
5:54  -  2 mph 1018.7mb 61f 50f
5:48 3
mph
1018.7mb 61f 50f
5:42 3 6 mph 1018.7mb 61f 50f
5:36 3 6 mph 1018.7mb 61f 50f
5:30 5 6 mph 1018.6mb 61f 50f
5:24 5 8 mph 1018.6mb 61f 51f
5:18 7 8 mph 1018.6mb 61f 50f
5:12 6 7 mph 1018.6mb 61f 50f
5:06 6 8 mph 1018.7mb 61f 50f
5:00 7 8 mph 1018.7mb 61f 50f
4:54 7 9 mph 1018.7mb 61f 50f
4:48 8 10 mph 1018.6mb 61f 50f
4:42 9 10 mph 1018.7mb 62f 50f
4:36 8 9 mph 1018.7mb 62f 50f
4:30 7 9 mph 1018.7mb 62f 50f
4:24 8 9 mph 1018.7mb 62f 50f
4:18 7 8 mph 1018.7mb 62f 51f
4:12 6 7 mph 1018.8mb 62f 51f
4:06 7 8 mph 1018.7mb 62f 50f
4:00 7 8 mph 1018.7mb 62f 50f
3:54 6 7 mph 1018.7mb 62f 50f
3:48 6 7 mph 1018.7mb 62f 51f
3:42 6 7 mph 1018.7mb 62f 51f
3:36 7 9 mph 1018.8mb 62f 50f
3:30 8
mph
1018.8mb 62f 51f
3:24 6 7 mph 1018.8mb 62f 50f
3:18 6 7 mph 1018.8mb 62f 51f
3:12 6
mph
1018.8mb 62f 51f
3:06 5 6 mph 1018.9mb 62f 51f
3:00 5 7 mph 1018.8mb 62f 51f
2:54 6 7 mph 1018.9mb 62f 51f
2:48 6 7 mph 1018.9mb 62f 50f
2:42 6 8 mph 1019mb 62f 50f
2:36 7 8 mph 1019mb 62f 51f
2:30 6 7 mph 1019mb 62f 51f
2:24 6 7 mph 1019mb 62f 51f
2:18 6 8 mph 1019.1mb 62f 51f
2:12 6 8 mph 1019.1mb 62f 51f
2:06 7 8 mph 1019.1mb 62f 52f